createdAt,value
2019-03-28T00:00:23.155Z,86.88
2019-03-28T00:01:23.138Z,86.69
2019-03-28T00:02:23.112Z,86.60
2019-03-28T00:03:23.092Z,86.69
2019-03-28T00:04:23.071Z,86.69
2019-03-28T00:05:23.050Z,86.41
2019-03-28T00:06:23.187Z,86.79
2019-03-28T00:07:24.350Z,86.69
2019-03-28T00:08:22.988Z,86.69
2019-03-28T00:09:22.970Z,86.51
2019-03-28T00:10:22.943Z,86.88
2019-03-28T00:11:22.920Z,86.51
2019-03-28T00:12:22.901Z,86.51
2019-03-28T00:13:22.879Z,86.41
2019-03-28T00:14:22.859Z,86.03
2019-03-28T00:15:22.838Z,86.88
2019-03-28T00:16:23.237Z,85.89
2019-03-28T00:17:22.795Z,86.22
2019-03-28T00:18:22.771Z,86.32
2019-03-28T00:19:22.752Z,86.32
2019-03-28T00:20:22.750Z,86.18
2019-03-28T00:21:22.709Z,86.22
2019-03-28T00:22:22.687Z,86.27
2019-03-28T00:23:22.665Z,86.27
2019-03-28T00:24:22.643Z,85.74
2019-03-28T00:25:22.622Z,85.89
2019-03-28T00:26:30.103Z,85.99
2019-03-28T00:27:22.583Z,85.99
2019-03-28T00:28:22.559Z,85.89
2019-03-28T00:29:22.537Z,86.22
2019-03-28T00:30:22.516Z,85.99
2019-03-28T00:31:22.503Z,86.12
2019-03-28T00:32:22.474Z,85.89
2019-03-28T00:33:22.456Z,85.89
2019-03-28T00:34:22.431Z,85.64
2019-03-28T00:35:22.413Z,85.60
2019-03-28T00:36:22.390Z,85.64
2019-03-28T00:37:22.372Z,85.93
2019-03-28T00:38:22.345Z,85.89
2019-03-28T00:39:22.324Z,85.93
2019-03-28T00:40:22.301Z,85.89
2019-03-28T00:41:22.280Z,85.89
2019-03-28T00:42:22.259Z,86.18
2019-03-28T00:43:22.239Z,85.70
2019-03-28T00:44:22.220Z,86.08
2019-03-28T00:45:22.198Z,85.93
2019-03-28T00:46:22.177Z,85.99
2019-03-28T00:47:22.151Z,85.99
2019-03-28T00:48:22.130Z,86.12
2019-03-28T00:49:22.107Z,86.12
2019-03-28T00:50:22.087Z,86.08
2019-03-28T00:51:22.091Z,85.99
2019-03-28T00:52:22.059Z,86.36
2019-03-28T00:53:22.027Z,85.93
2019-03-28T00:54:22.007Z,86.08
2019-03-28T00:55:21.981Z,85.89
2019-03-28T00:56:21.957Z,85.51
2019-03-28T00:57:21.939Z,85.89
2019-03-28T00:58:21.916Z,86.08
2019-03-28T00:59:21.895Z,86.36
2019-03-28T01:00:21.878Z,85.80
2019-03-28T01:01:21.852Z,85.99
2019-03-28T01:02:21.832Z,86.46
2019-03-28T01:03:21.809Z,85.99
2019-03-28T01:04:21.785Z,86.27
2019-03-28T01:05:21.766Z,86.18
2019-03-28T01:06:21.745Z,85.99
2019-03-28T01:07:22.075Z,86.08
2019-03-28T01:08:21.700Z,86.18
2019-03-28T01:09:21.679Z,85.89
2019-03-28T01:10:22.210Z,86.18
2019-03-28T01:11:21.637Z,86.08
2019-03-28T01:12:21.614Z,86.27
2019-03-28T01:13:21.595Z,86.18
2019-03-28T01:14:21.574Z,86.08
2019-03-28T01:15:21.554Z,86.27
2019-03-28T01:16:21.532Z,85.89
2019-03-28T01:17:21.507Z,86.08
2019-03-28T01:18:21.485Z,86.08
2019-03-28T01:19:21.467Z,86.08
2019-03-28T01:20:21.442Z,86.08
2019-03-28T01:21:21.426Z,85.89
2019-03-28T01:22:21.401Z,85.89
2019-03-28T01:23:21.379Z,85.89
2019-03-28T01:24:21.363Z,86.36
2019-03-28T01:25:21.341Z,85.80
2019-03-28T01:26:21.312Z,85.89
2019-03-28T01:27:21.293Z,85.89
2019-03-28T01:28:21.286Z,85.99
2019-03-28T01:29:21.249Z,85.99
2019-03-28T01:30:21.231Z,86.08
2019-03-28T01:31:21.205Z,85.89
2019-03-28T01:32:21.183Z,85.89
2019-03-28T01:33:21.162Z,86.18
2019-03-28T01:34:21.141Z,85.89
2019-03-28T01:35:21.117Z,86.18
2019-03-28T01:36:21.097Z,85.80
2019-03-28T01:37:21.076Z,85.99
2019-03-28T01:38:21.056Z,86.36
2019-03-28T01:39:21.032Z,86.27
2019-03-28T01:40:21.011Z,86.27
2019-03-28T01:41:20.989Z,86.27
2019-03-28T01:42:20.968Z,85.99
2019-03-28T01:43:20.965Z,86.36
2019-03-28T01:44:20.926Z,86.27
2019-03-28T01:45:20.907Z,86.27
2019-03-28T01:46:20.881Z,85.89
2019-03-28T01:47:20.857Z,86.08
2019-03-28T01:48:20.837Z,86.18
2019-03-28T01:49:20.820Z,85.89
2019-03-28T01:50:20.795Z,86.08
2019-03-28T01:51:20.771Z,86.08
2019-03-28T01:52:21.338Z,86.08
2019-03-28T01:53:20.798Z,86.27
2019-03-28T01:54:20.710Z,86.08
2019-03-28T01:55:21.147Z,86.08
2019-03-28T01:56:20.666Z,86.08
2019-03-28T01:57:20.694Z,86.27
2019-03-28T01:58:20.657Z,85.89
2019-03-28T01:59:21.230Z,85.99
2019-03-28T02:00:20.576Z,86.08
2019-03-28T02:01:20.557Z,85.99
2019-03-28T02:02:20.534Z,85.99
2019-03-28T02:03:20.511Z,85.80
2019-03-28T02:04:20.490Z,85.99
2019-03-28T02:05:20.467Z,85.70
2019-03-28T02:06:20.451Z,85.99
2019-03-28T02:07:20.426Z,86.08
2019-03-28T02:08:20.407Z,85.89
2019-03-28T02:09:20.380Z,85.70
2019-03-28T02:10:20.367Z,85.60
2019-03-28T02:11:20.335Z,85.70
2019-03-28T02:12:20.323Z,85.80
2019-03-28T02:13:20.293Z,85.70
2019-03-28T02:14:20.271Z,85.41
2019-03-28T02:15:20.248Z,85.89
2019-03-28T02:16:20.248Z,85.80
2019-03-28T02:17:20.205Z,85.80
2019-03-28T02:18:20.184Z,85.51
2019-03-28T02:19:20.162Z,85.70
2019-03-28T02:20:20.139Z,85.99
2019-03-28T02:21:20.122Z,85.80
2019-03-28T02:22:20.099Z,85.70
2019-03-28T02:23:20.076Z,85.70
2019-03-28T02:24:20.052Z,85.70
2019-03-28T02:25:20.032Z,85.60
2019-03-28T02:26:20.012Z,85.89
2019-03-28T02:27:24.277Z,85.60
2019-03-28T02:28:19.964Z,85.89
2019-03-28T02:29:19.943Z,85.70
2019-03-28T02:30:19.923Z,85.70
2019-03-28T02:31:19.911Z,85.51
2019-03-28T02:32:19.881Z,85.41
2019-03-28T02:33:19.855Z,85.70
2019-03-28T02:34:19.834Z,85.70
2019-03-28T02:35:19.811Z,85.60
2019-03-28T02:36:19.791Z,85.70
2019-03-28T02:37:19.770Z,85.70
2019-03-28T02:38:19.748Z,86.08
2019-03-28T02:39:19.724Z,85.60
2019-03-28T02:40:19.706Z,85.70
2019-03-28T02:41:19.685Z,85.60
2019-03-28T02:42:19.669Z,85.70
2019-03-28T02:43:19.962Z,85.80
2019-03-28T02:44:19.615Z,85.60
2019-03-28T02:45:19.593Z,85.70
2019-03-28T02:46:19.572Z,85.51
2019-03-28T02:47:19.549Z,85.60
2019-03-28T02:48:19.641Z,85.32
2019-03-28T02:49:19.936Z,85.51
2019-03-28T02:50:19.484Z,85.70
2019-03-28T02:51:19.467Z,85.60
2019-03-28T02:52:19.450Z,85.80
2019-03-28T02:53:19.421Z,85.89
2019-03-28T02:54:19.404Z,85.89
2019-03-28T02:55:19.376Z,85.70
2019-03-28T02:56:19.354Z,85.80
2019-03-28T02:57:19.337Z,85.51
2019-03-28T02:58:19.318Z,85.32
2019-03-28T02:59:19.295Z,85.60
2019-03-28T03:00:20.651Z,85.70
2019-03-28T03:01:19.249Z,85.60
2019-03-28T03:02:19.224Z,85.70
2019-03-28T03:03:19.212Z,85.70
2019-03-28T03:04:19.182Z,85.60
2019-03-28T03:05:19.161Z,85.70
2019-03-28T03:06:19.201Z,85.70
2019-03-28T03:07:19.122Z,85.32
2019-03-28T03:08:19.098Z,85.70
2019-03-28T03:09:19.072Z,85.32
2019-03-28T03:10:19.051Z,85.32
2019-03-28T03:11:19.031Z,85.51
2019-03-28T03:12:19.015Z,85.32
2019-03-28T03:13:19.786Z,85.32
2019-03-28T03:14:18.963Z,86.08
2019-03-28T03:15:18.942Z,85.89
2019-03-28T03:16:18.920Z,85.41
2019-03-28T03:17:18.898Z,85.89
2019-03-28T03:18:21.422Z,85.89
2019-03-28T03:19:18.855Z,85.89
2019-03-28T03:20:18.833Z,85.89
2019-03-28T03:21:18.817Z,85.80
2019-03-28T03:22:18.789Z,85.70
2019-03-28T03:23:19.906Z,85.60
2019-03-28T03:24:18.828Z,85.51
2019-03-28T03:25:18.739Z,85.70
2019-03-28T03:26:18.704Z,85.60
2019-03-28T03:27:18.695Z,85.89
2019-03-28T03:28:18.673Z,85.89
2019-03-28T03:29:18.639Z,85.89
2019-03-28T03:30:18.637Z,85.89
2019-03-28T03:31:21.315Z,85.89
2019-03-28T03:32:18.573Z,85.70
2019-03-28T03:33:18.602Z,85.51
2019-03-28T03:34:18.539Z,85.89
2019-03-28T03:35:18.507Z,85.89
2019-03-28T03:36:18.486Z,85.60
2019-03-28T03:37:18.465Z,85.70
2019-03-28T03:38:18.443Z,85.70
2019-03-28T03:39:18.422Z,85.22
2019-03-28T03:40:18.399Z,85.60
2019-03-28T03:41:18.382Z,85.70
2019-03-28T03:42:18.356Z,85.70
2019-03-28T03:43:18.337Z,85.80
2019-03-28T03:44:18.310Z,85.80
2019-03-28T03:45:18.290Z,85.70
2019-03-28T03:46:18.280Z,85.32
2019-03-28T03:47:18.249Z,85.41
2019-03-28T03:48:18.226Z,85.70
2019-03-28T03:49:18.203Z,85.60
2019-03-28T03:50:18.182Z,85.89
2019-03-28T03:51:18.159Z,85.51
2019-03-28T03:52:18.137Z,85.70
2019-03-28T03:53:18.117Z,85.70
2019-03-28T03:54:18.094Z,85.60
2019-03-28T03:55:18.072Z,85.60
2019-03-28T03:56:18.052Z,85.89
2019-03-28T03:57:18.029Z,85.32
2019-03-28T03:58:18.898Z,85.80
2019-03-28T03:59:17.986Z,85.89
2019-03-28T04:00:17.965Z,85.70
2019-03-28T04:01:18.674Z,85.41
2019-03-28T04:02:17.921Z,85.70
2019-03-28T04:03:17.899Z,85.80
2019-03-28T04:04:17.878Z,85.41
2019-03-28T04:05:17.870Z,85.60
2019-03-28T04:06:17.842Z,85.22
2019-03-28T04:07:17.813Z,85.70
2019-03-28T04:08:17.790Z,85.70
2019-03-28T04:09:17.773Z,85.51
2019-03-28T04:10:17.751Z,85.51
2019-03-28T04:11:17.725Z,85.60
2019-03-28T04:12:17.706Z,85.89
2019-03-28T04:13:17.693Z,85.32
2019-03-28T04:14:17.660Z,85.60
2019-03-28T04:15:17.639Z,85.32
2019-03-28T04:16:17.618Z,85.60
2019-03-28T04:17:17.595Z,85.60
2019-03-28T04:18:21.699Z,85.51
2019-03-28T04:19:17.551Z,85.70
2019-03-28T04:20:17.552Z,85.70
2019-03-28T04:21:17.687Z,85.51
2019-03-28T04:22:17.487Z,85.51
2019-03-28T04:23:17.471Z,85.51
2019-03-28T04:24:17.442Z,85.32
2019-03-28T04:25:17.430Z,85.51
2019-03-28T04:26:17.400Z,85.56
2019-03-28T04:27:17.379Z,85.51
2019-03-28T04:28:30.794Z,85.80
2019-03-28T04:29:17.335Z,85.51
2019-03-28T04:30:17.324Z,85.51
2019-03-28T04:31:17.295Z,85.60
2019-03-28T04:32:17.280Z,85.60
2019-03-28T04:33:17.247Z,85.51
2019-03-28T04:34:17.227Z,85.60
2019-03-28T04:35:17.202Z,85.80
2019-03-28T04:36:17.182Z,85.80
2019-03-28T04:37:17.161Z,85.70
2019-03-28T04:38:17.140Z,85.60
2019-03-28T04:39:17.118Z,85.66
2019-03-28T04:40:17.094Z,85.89
2019-03-28T04:41:17.076Z,85.66
2019-03-28T04:42:17.053Z,85.66
2019-03-28T04:43:17.029Z,85.75
2019-03-28T04:44:17.007Z,85.60
2019-03-28T04:45:16.988Z,85.22
2019-03-28T04:46:16.964Z,85.13
2019-03-28T04:47:16.953Z,85.75
2019-03-28T04:48:16.921Z,85.99
2019-03-28T04:49:16.902Z,85.08
2019-03-28T04:50:16.876Z,85.75
2019-03-28T04:51:16.855Z,85.08
2019-03-28T04:52:16.834Z,84.99
2019-03-28T04:53:16.813Z,84.99
2019-03-28T04:54:16.793Z,85.18
2019-03-28T04:55:16.769Z,85.08
2019-03-28T04:56:16.747Z,85.22
2019-03-28T04:57:16.726Z,85.37
2019-03-28T04:58:16.702Z,84.99
2019-03-28T04:59:16.681Z,84.99
2019-03-28T05:00:16.659Z,85.08
2019-03-28T05:01:16.636Z,84.99
2019-03-28T05:02:16.617Z,84.52
2019-03-28T05:03:16.594Z,85.08
2019-03-28T05:04:16.595Z,85.08
2019-03-28T05:05:16.551Z,85.37
2019-03-28T05:06:16.527Z,85.08
2019-03-28T05:07:16.583Z,84.89
2019-03-28T05:08:16.483Z,85.08
2019-03-28T05:09:16.462Z,84.89
2019-03-28T05:10:16.439Z,84.70
2019-03-28T05:11:16.419Z,84.52
2019-03-28T05:12:16.399Z,84.70
2019-03-28T05:13:16.374Z,84.70
2019-03-28T05:14:16.356Z,84.52
2019-03-28T05:15:16.335Z,84.89
2019-03-28T05:16:16.308Z,84.61
2019-03-28T05:17:16.286Z,84.61
2019-03-28T05:18:16.265Z,84.89
2019-03-28T05:19:16.244Z,84.52
2019-03-28T05:20:16.238Z,84.70
2019-03-28T05:21:16.199Z,84.80
2019-03-28T05:22:16.176Z,84.89
2019-03-28T05:23:16.154Z,84.89
2019-03-28T05:24:16.134Z,85.18
2019-03-28T05:25:16.115Z,84.70
2019-03-28T05:26:16.095Z,84.89
2019-03-28T05:27:16.733Z,84.70
2019-03-28T05:28:16.055Z,84.89
2019-03-28T05:29:16.023Z,84.61
2019-03-28T05:30:16.005Z,84.61
2019-03-28T05:31:15.982Z,84.70
2019-03-28T05:32:15.962Z,84.61
2019-03-28T05:33:15.934Z,84.33
2019-03-28T05:34:15.913Z,84.89
2019-03-28T05:35:15.891Z,84.89
2019-03-28T05:36:15.868Z,84.89
2019-03-28T05:37:15.850Z,84.61
2019-03-28T05:38:15.824Z,84.80
2019-03-28T05:39:15.802Z,85.18
2019-03-28T05:40:15.780Z,85.28
2019-03-28T05:41:17.413Z,84.80
2019-03-28T05:42:15.735Z,84.80
2019-03-28T05:43:16.499Z,84.80
2019-03-28T05:44:15.691Z,85.18
2019-03-28T05:45:15.672Z,84.89
2019-03-28T05:46:15.653Z,84.80
2019-03-28T05:47:15.624Z,84.61
2019-03-28T05:48:15.602Z,84.80
2019-03-28T05:49:15.581Z,84.42
2019-03-28T05:50:15.558Z,84.70
2019-03-28T05:51:15.534Z,84.70
2019-03-28T05:52:15.514Z,84.61
2019-03-28T05:53:15.494Z,84.61
2019-03-28T05:54:15.467Z,84.42
2019-03-28T05:55:15.449Z,84.13
2019-03-28T05:56:15.426Z,84.33
2019-03-28T05:57:15.419Z,84.33
2019-03-28T05:58:15.383Z,84.52
2019-03-28T05:59:15.357Z,85.18
2019-03-28T06:00:15.336Z,84.89
2019-03-28T06:01:15.313Z,84.52
2019-03-28T06:02:15.290Z,84.80
2019-03-28T06:03:15.309Z,84.52
2019-03-28T06:04:15.258Z,84.52
2019-03-28T06:05:15.224Z,84.52
2019-03-28T06:06:15.201Z,84.80
2019-03-28T06:07:15.179Z,84.80
2019-03-28T06:08:15.157Z,84.70
2019-03-28T06:09:15.138Z,84.52
2019-03-28T06:10:16.445Z,84.80
2019-03-28T06:11:15.089Z,84.80
2019-03-28T06:12:15.084Z,84.99
2019-03-28T06:13:15.050Z,84.99
2019-03-28T06:14:15.024Z,84.80
2019-03-28T06:15:15.000Z,84.89
2019-03-28T06:16:14.978Z,84.23
2019-03-28T06:17:14.958Z,84.23
2019-03-28T06:18:14.934Z,84.52
2019-03-28T06:19:14.911Z,84.52
2019-03-28T06:20:14.890Z,84.13
2019-03-28T06:21:14.867Z,84.61
2019-03-28T06:22:14.845Z,84.70
2019-03-28T06:23:14.829Z,84.80
2019-03-28T06:24:14.799Z,85.08
2019-03-28T06:25:14.777Z,85.28
2019-03-28T06:26:15.579Z,84.61
2019-03-28T06:27:14.731Z,84.80
2019-03-28T06:28:14.708Z,84.61
2019-03-28T06:29:23.705Z,84.89
2019-03-28T06:30:14.692Z,84.89
2019-03-28T06:31:14.652Z,84.52
2019-03-28T06:32:14.618Z,85.28
2019-03-28T06:33:14.596Z,85.28
2019-03-28T06:34:14.580Z,84.52
2019-03-28T06:35:14.560Z,84.89
2019-03-28T06:36:14.592Z,84.42
2019-03-28T06:37:14.534Z,84.80
2019-03-28T06:38:14.484Z,84.42
2019-03-28T06:39:14.460Z,84.52
2019-03-28T06:40:14.438Z,84.80
2019-03-28T06:41:14.414Z,85.28
2019-03-28T06:42:14.396Z,84.80
2019-03-28T06:43:14.369Z,84.80
2019-03-28T06:44:14.350Z,84.61
2019-03-28T06:45:14.325Z,84.80
2019-03-28T06:46:14.302Z,84.80
2019-03-28T06:47:14.287Z,84.80
2019-03-28T06:48:14.257Z,85.18
2019-03-28T06:49:14.239Z,84.80
2019-03-28T06:50:14.217Z,85.28
2019-03-28T06:51:14.192Z,84.80
2019-03-28T06:52:14.169Z,84.70
2019-03-28T06:53:14.147Z,84.84
2019-03-28T06:54:14.126Z,84.94
2019-03-28T06:55:14.100Z,85.03
2019-03-28T06:56:14.077Z,84.75
2019-03-28T06:57:14.056Z,84.70
2019-03-28T06:58:14.033Z,84.75
2019-03-28T06:59:14.009Z,85.03
2019-03-28T07:00:13.988Z,84.75
2019-03-28T07:01:13.966Z,84.75
2019-03-28T07:02:13.943Z,85.22
2019-03-28T07:03:13.923Z,84.94
2019-03-28T07:04:13.899Z,85.22
2019-03-28T07:05:13.879Z,84.56
2019-03-28T07:06:14.538Z,85.03
2019-03-28T07:07:13.835Z,84.46
2019-03-28T07:08:13.809Z,85.03
2019-03-28T07:09:13.788Z,84.65
2019-03-28T07:10:13.766Z,85.03
2019-03-28T07:11:13.745Z,84.75
2019-03-28T07:12:13.722Z,84.94
2019-03-28T07:13:13.700Z,84.65
2019-03-28T07:14:13.682Z,84.46
2019-03-28T07:15:13.655Z,85.03
2019-03-28T07:16:13.684Z,85.03
2019-03-28T07:17:13.629Z,85.70
2019-03-28T07:18:13.593Z,85.32
2019-03-28T07:19:13.568Z,84.69
2019-03-28T07:20:13.572Z,84.84
2019-03-28T07:21:13.529Z,85.27
2019-03-28T07:22:13.503Z,85.27
2019-03-28T07:23:13.489Z,85.27
2019-03-28T07:24:13.465Z,85.74
2019-03-28T07:25:13.438Z,85.17
2019-03-28T07:26:13.418Z,85.89
2019-03-28T07:27:13.395Z,85.84
2019-03-28T07:28:13.380Z,85.13
2019-03-28T07:29:13.364Z,85.03
2019-03-28T07:30:13.334Z,84.94
2019-03-28T07:31:13.309Z,84.94
2019-03-28T07:32:13.335Z,85.03
2019-03-28T07:33:13.267Z,85.84
2019-03-28T07:34:13.598Z,84.98
2019-03-28T07:35:13.229Z,85.27
2019-03-28T07:36:13.200Z,85.08
2019-03-28T07:37:13.179Z,85.36
2019-03-28T07:38:13.157Z,85.27
2019-03-28T07:39:13.491Z,84.98
2019-03-28T07:40:13.114Z,85.55
2019-03-28T07:41:13.094Z,85.74
2019-03-28T07:42:13.078Z,85.93
2019-03-28T07:43:13.054Z,85.74
2019-03-28T07:44:13.031Z,86.12
2019-03-28T07:45:13.021Z,85.36
2019-03-28T07:46:12.991Z,85.74
2019-03-28T07:47:12.965Z,85.46
2019-03-28T07:48:12.944Z,85.17
2019-03-28T07:49:12.922Z,84.88
2019-03-28T07:50:12.904Z,85.08
2019-03-28T07:51:12.916Z,85.08
2019-03-28T07:52:13.008Z,84.79
2019-03-28T07:53:12.837Z,84.98
2019-03-28T07:54:13.372Z,84.79
2019-03-28T07:55:12.797Z,85.17
2019-03-28T07:56:12.774Z,85.08
2019-03-28T07:57:12.751Z,84.79
2019-03-28T07:58:12.733Z,85.17
2019-03-28T07:59:12.712Z,85.21
2019-03-28T08:00:12.687Z,85.17
2019-03-28T08:01:12.667Z,85.74
2019-03-28T08:02:12.647Z,85.12
2019-03-28T08:03:12.626Z,85.12
2019-03-28T08:04:12.605Z,85.50
2019-03-28T08:05:12.589Z,85.21
2019-03-28T08:06:12.985Z,85.21
2019-03-28T08:07:12.537Z,85.31
2019-03-28T08:08:12.519Z,85.12
2019-03-28T08:09:12.500Z,85.60
2019-03-28T08:10:12.492Z,85.12
2019-03-28T08:11:12.475Z,85.12
2019-03-28T08:12:22.364Z,85.41
2019-03-28T08:13:12.412Z,85.31
2019-03-28T08:14:12.393Z,85.41
2019-03-28T08:15:12.371Z,84.74
2019-03-28T08:16:12.350Z,85.50
2019-03-28T08:17:12.330Z,84.83
2019-03-28T08:18:12.307Z,84.83
2019-03-28T08:19:12.284Z,85.31
2019-03-28T08:20:12.273Z,85.02
2019-03-28T08:21:12.252Z,84.83
2019-03-28T08:22:12.224Z,85.08
2019-03-28T08:23:12.201Z,85.50
2019-03-28T08:24:12.180Z,85.50
2019-03-28T08:25:13.084Z,85.41
2019-03-28T08:26:12.138Z,85.50
2019-03-28T08:27:12.126Z,85.50
2019-03-28T08:28:12.095Z,85.31
2019-03-28T08:29:12.074Z,85.12
2019-03-28T08:30:18.877Z,84.83
2019-03-28T08:31:12.039Z,85.45
2019-03-28T08:32:13.559Z,85.73
2019-03-28T08:33:11.998Z,85.16
2019-03-28T08:34:11.972Z,85.16
2019-03-28T08:35:11.948Z,84.20
2019-03-28T08:36:11.927Z,84.40
2019-03-28T08:37:11.906Z,84.78
2019-03-28T08:38:11.886Z,85.06
2019-03-28T08:39:11.867Z,85.83
2019-03-28T08:40:11.846Z,85.06
2019-03-28T08:41:11.825Z,84.88
2019-03-28T08:42:11.806Z,84.59
2019-03-28T08:43:11.793Z,84.69
2019-03-28T08:44:11.760Z,85.45
2019-03-28T08:45:11.741Z,85.06
2019-03-28T08:46:11.720Z,84.97
2019-03-28T08:47:11.698Z,84.49
2019-03-28T08:48:11.700Z,84.69
2019-03-28T08:49:11.669Z,84.49
2019-03-28T08:50:11.636Z,84.49
2019-03-28T08:51:11.619Z,84.97
2019-03-28T08:52:12.030Z,84.78
2019-03-28T08:53:11.574Z,84.30
2019-03-28T08:54:11.554Z,84.01
2019-03-28T08:55:11.537Z,85.21
2019-03-28T08:56:11.642Z,84.44
2019-03-28T08:57:11.492Z,84.16
2019-03-28T08:58:11.473Z,84.92
2019-03-28T08:59:11.454Z,85.11
2019-03-28T09:00:11.455Z,84.72
2019-03-28T09:01:11.429Z,84.77
2019-03-28T09:02:11.391Z,84.53
2019-03-28T09:03:11.369Z,83.87
2019-03-28T09:04:11.361Z,84.06
2019-03-28T09:05:11.344Z,84.44
2019-03-28T09:06:11.312Z,84.53
2019-03-28T09:07:11.288Z,84.06
2019-03-28T09:08:11.304Z,84.44
2019-03-28T09:09:11.252Z,84.16
2019-03-28T09:10:11.230Z,84.39
2019-03-28T09:11:11.212Z,84.39
2019-03-28T09:12:11.192Z,84.58
2019-03-28T09:13:11.172Z,83.91
2019-03-28T09:14:11.149Z,84.39
2019-03-28T09:15:11.136Z,84.29
2019-03-28T09:16:11.110Z,84.77
2019-03-28T09:17:11.089Z,84.52
2019-03-28T09:18:11.074Z,84.20
2019-03-28T09:19:11.051Z,84.10
2019-03-28T09:20:11.034Z,84.58
2019-03-28T09:21:11.012Z,84.05
2019-03-28T09:22:10.997Z,83.76
2019-03-28T09:23:10.974Z,84.05
2019-03-28T09:24:10.957Z,84.00
2019-03-28T09:25:12.385Z,83.76
2019-03-28T09:26:10.914Z,83.72
2019-03-28T09:27:10.894Z,83.34
2019-03-28T09:28:10.874Z,84.14
2019-03-28T09:29:10.856Z,84.05
2019-03-28T09:30:10.837Z,83.67
2019-03-28T09:31:19.673Z,83.28
2019-03-28T09:32:10.798Z,83.76
2019-03-28T09:33:10.777Z,83.28
2019-03-28T09:34:10.759Z,83.57
2019-03-28T09:35:10.742Z,84.33
2019-03-28T09:36:10.722Z,83.09
2019-03-28T09:37:10.703Z,83.38
2019-03-28T09:38:10.687Z,83.04
2019-03-28T09:39:10.662Z,84.09
2019-03-28T09:40:10.644Z,83.04
2019-03-28T09:41:10.718Z,83.18
2019-03-28T09:42:10.606Z,82.81
2019-03-28T09:43:10.589Z,83.00
2019-03-28T09:44:10.575Z,83.57
2019-03-28T09:45:10.553Z,83.13
2019-03-28T09:46:10.528Z,83.61
2019-03-28T09:47:10.514Z,83.70
2019-03-28T09:48:11.902Z,83.90
2019-03-28T09:49:10.515Z,83.61
2019-03-28T09:50:10.455Z,83.04
2019-03-28T09:51:10.439Z,82.75
2019-03-28T09:52:10.419Z,82.84
2019-03-28T09:53:10.398Z,82.84
2019-03-28T09:54:10.379Z,82.84
2019-03-28T09:55:10.383Z,83.13
2019-03-28T09:56:10.343Z,83.33
2019-03-28T09:57:10.323Z,82.89
2019-03-28T09:58:10.303Z,83.23
2019-03-28T09:59:10.315Z,83.08
2019-03-28T10:00:10.267Z,82.60
2019-03-28T10:01:10.249Z,82.89
2019-03-28T10:02:10.231Z,82.79
2019-03-28T10:03:10.209Z,83.08
2019-03-28T10:04:10.194Z,83.65
2019-03-28T10:05:10.173Z,82.70
2019-03-28T10:06:10.158Z,82.89
2019-03-28T10:07:10.138Z,83.37
2019-03-28T10:08:10.120Z,82.51
2019-03-28T10:09:10.101Z,82.12
2019-03-28T10:10:10.082Z,82.03
2019-03-28T10:11:10.070Z,82.22
2019-03-28T10:12:10.046Z,82.31
2019-03-28T10:13:10.030Z,82.22
2019-03-28T10:14:10.010Z,82.79
2019-03-28T10:15:09.991Z,82.70
2019-03-28T10:16:09.972Z,83.27
2019-03-28T10:17:09.961Z,82.54
2019-03-28T10:18:09.936Z,82.54
2019-03-28T10:19:09.918Z,82.17
2019-03-28T10:20:09.900Z,81.84
2019-03-28T10:21:09.892Z,81.68
2019-03-28T10:22:09.872Z,81.40
2019-03-28T10:23:09.850Z,79.49
2019-03-28T10:24:09.830Z,78.24
2019-03-28T10:25:12.565Z,78.53
2019-03-28T10:26:09.813Z,78.68
2019-03-28T10:27:09.775Z,79.87
2019-03-28T10:28:09.754Z,80.73
2019-03-28T10:29:09.735Z,81.11
2019-03-28T10:30:09.719Z,81.21
2019-03-28T10:31:16.420Z,81.59
2019-03-28T10:32:09.685Z,81.88
2019-03-28T10:33:09.668Z,81.88
2019-03-28T10:34:09.648Z,81.88
2019-03-28T10:35:09.627Z,81.78
2019-03-28T10:36:09.611Z,82.17
2019-03-28T10:37:09.595Z,81.78
2019-03-28T10:38:09.580Z,81.59
2019-03-28T10:39:09.563Z,81.11
2019-03-28T10:40:09.542Z,81.02
2019-03-28T10:41:09.534Z,80.82
2019-03-28T10:42:09.504Z,80.92
2019-03-28T10:43:09.485Z,81.11
2019-03-28T10:44:09.473Z,81.88
2019-03-28T10:45:09.452Z,80.73
2019-03-28T10:46:09.431Z,81.30
2019-03-28T10:47:09.416Z,81.97
2019-03-28T10:48:09.395Z,81.88
2019-03-28T10:49:09.377Z,81.02
2019-03-28T10:50:09.358Z,81.02
2019-03-28T10:51:09.358Z,81.49
2019-03-28T10:52:11.964Z,81.88
2019-03-28T10:53:09.305Z,81.49
2019-03-28T10:54:19.918Z,81.11
2019-03-28T10:55:09.269Z,80.82
2019-03-28T10:56:20.822Z,81.02
2019-03-28T10:57:15.519Z,80.44
2019-03-28T10:58:18.231Z,80.06
2019-03-28T10:59:22.320Z,80.06
2019-03-28T11:00:09.181Z,81.21
2019-03-28T11:01:09.169Z,81.59
2019-03-28T11:02:09.144Z,81.21
2019-03-28T11:03:09.124Z,80.92
2019-03-28T11:04:09.108Z,81.21
2019-03-28T11:05:09.090Z,81.11
2019-03-28T11:06:09.073Z,80.54
2019-03-28T11:07:09.059Z,80.54
2019-03-28T11:08:09.039Z,80.82
2019-03-28T11:09:09.021Z,80.73
2019-03-28T11:10:09.005Z,80.73
2019-03-28T11:11:08.999Z,80.73
2019-03-28T11:12:08.966Z,80.35
2019-03-28T11:13:09.639Z,79.68
2019-03-28T11:14:08.933Z,79.96
2019-03-28T11:15:08.911Z,80.06
2019-03-28T11:16:08.900Z,80.25
2019-03-28T11:17:08.888Z,80.54
2019-03-28T11:18:08.857Z,80.25
2019-03-28T11:19:08.839Z,81.02
2019-03-28T11:20:09.799Z,81.21
2019-03-28T11:21:08.809Z,80.73
2019-03-28T11:22:08.795Z,81.30
2019-03-28T11:23:08.766Z,81.11
2019-03-28T11:24:08.750Z,81.11
2019-03-28T11:25:08.731Z,81.21
2019-03-28T11:26:08.717Z,80.44
2019-03-28T11:27:08.695Z,80.92
2019-03-28T11:28:08.704Z,80.63
2019-03-28T11:29:08.659Z,80.73
2019-03-28T11:30:08.641Z,80.73
2019-03-28T11:31:08.623Z,79.29
2019-03-28T11:32:08.607Z,79.49
2019-03-28T11:33:08.588Z,79.77
2019-03-28T11:34:08.568Z,79.77
2019-03-28T11:35:08.551Z,79.54
2019-03-28T11:36:08.532Z,80.63
2019-03-28T11:37:14.906Z,80.88
2019-03-28T11:38:09.748Z,80.63
2019-03-28T11:39:08.478Z,79.68
2019-03-28T11:40:09.363Z,80.73
2019-03-28T11:41:08.796Z,80.35
2019-03-28T11:42:08.425Z,80.06
2019-03-28T11:43:08.405Z,78.34
2019-03-28T11:44:08.393Z,78.91
2019-03-28T11:45:09.623Z,78.91
2019-03-28T11:46:08.350Z,77.48
2019-03-28T11:47:08.331Z,77.48
2019-03-28T11:48:08.315Z,78.14
2019-03-28T11:49:08.297Z,78.81
2019-03-28T11:50:08.295Z,77.15
2019-03-28T11:51:08.323Z,78.49
2019-03-28T11:52:08.241Z,78.97
2019-03-28T11:53:08.233Z,79.73
2019-03-28T11:54:08.207Z,80.40
2019-03-28T11:55:08.187Z,81.26
2019-03-28T11:56:08.169Z,81.26
2019-03-28T11:57:08.155Z,80.69
2019-03-28T11:58:08.139Z,80.50
2019-03-28T11:59:08.125Z,80.50
2019-03-28T12:00:08.098Z,80.50
2019-03-28T12:01:08.080Z,80.02
2019-03-28T12:02:19.854Z,80.02
2019-03-28T12:03:08.042Z,79.35
2019-03-28T12:04:08.022Z,78.58
2019-03-28T12:05:08.004Z,79.44
2019-03-28T12:06:07.986Z,79.93
2019-03-28T12:07:07.969Z,79.35
2019-03-28T12:08:07.947Z,80.02
2019-03-28T12:09:07.929Z,79.16
2019-03-28T12:10:07.911Z,78.34
2019-03-28T12:11:07.896Z,78.43
2019-03-28T12:12:07.875Z,78.81
2019-03-28T12:13:07.856Z,79.39
2019-03-28T12:14:07.838Z,79.20
2019-03-28T12:15:07.820Z,78.14
2019-03-28T12:16:07.800Z,77.48
2019-03-28T12:17:07.783Z,77.00
2019-03-28T12:18:07.767Z,77.57
2019-03-28T12:19:07.892Z,77.76
2019-03-28T12:20:07.729Z,77.57
2019-03-28T12:21:07.709Z,75.24
2019-03-28T12:22:07.692Z,74.70
2019-03-28T12:23:07.673Z,74.85
2019-03-28T12:24:07.653Z,74.76
2019-03-28T12:25:07.669Z,74.19
2019-03-28T12:26:07.619Z,75.24
2019-03-28T12:27:07.606Z,75.81
2019-03-28T12:28:07.586Z,75.81
2019-03-28T12:29:07.563Z,75.43
2019-03-28T12:30:07.559Z,75.34
2019-03-28T12:31:07.529Z,75.81
2019-03-28T12:32:14.015Z,77.34
2019-03-28T12:33:07.511Z,77.06
2019-03-28T12:34:07.473Z,75.52
2019-03-28T12:35:07.451Z,74.95
2019-03-28T12:36:07.434Z,74.85
2019-03-28T12:37:07.417Z,75.81
2019-03-28T12:38:07.401Z,76.10
2019-03-28T12:39:07.383Z,74.19
2019-03-28T12:40:07.360Z,73.90
2019-03-28T12:41:07.341Z,73.04
2019-03-28T12:42:07.325Z,74.19
2019-03-28T12:43:07.304Z,74.38
2019-03-28T12:44:07.330Z,71.51
2019-03-28T12:45:07.385Z,70.94
2019-03-28T12:46:07.250Z,71.03
2019-03-28T12:47:07.236Z,73.67
2019-03-28T12:48:07.216Z,74.85
2019-03-28T12:49:07.195Z,74.53
2019-03-28T12:50:07.174Z,73.23
2019-03-28T12:51:07.157Z,72.91
2019-03-28T12:52:07.146Z,72.43